sensor_id;sensor_type;location;lat;lon;timestamp;temperature;humidity
43647;DHT22;56152;49.996;18.980;2023-03-22T00:04:57;6.30;96.90
43647;DHT22;56152;49.996;18.980;2023-03-22T00:10:05;6.10;96.90
43647;DHT22;56152;49.996;18.980;2023-03-22T00:15:11;6.00;97.10
43647;DHT22;56152;49.996;18.980;2023-03-22T00:20:15;5.90;97.20
43647;DHT22;56152;49.996;18.980;2023-03-22T00:25:19;5.80;97.20
43647;DHT22;56152;49.996;18.980;2023-03-22T00:30:28;5.80;97.30
43647;DHT22;56152;49.996;18.980;2023-03-22T00:35:32;5.70;97.20
43647;DHT22;56152;49.996;18.980;2023-03-22T00:40:34;5.70;97.20
43647;DHT22;56152;49.996;18.980;2023-03-22T00:45:39;5.70;97.20
43647;DHT22;56152;49.996;18.980;2023-03-22T00:50:41;5.60;97.20
43647;DHT22;56152;49.996;18.980;2023-03-22T00:55:43;5.50;97.20
43647;DHT22;56152;49.996;18.980;2023-03-22T01:00:51;5.40;97.20
43647;DHT22;56152;49.996;18.980;2023-03-22T01:05:54;5.30;97.30
43647;DHT22;56152;49.996;18.980;2023-03-22T01:10:56;5.20;97.30
43647;DHT22;56152;49.996;18.980;2023-03-22T01:16:13;5.10;97.30
43647;DHT22;56152;49.996;18.980;2023-03-22T01:21:15;5.00;97.30
43647;DHT22;56152;49.996;18.980;2023-03-22T01:26:18;4.90;97.30
43647;DHT22;56152;49.996;18.980;2023-03-22T01:31:23;4.90;97.30
43647;DHT22;56152;49.996;18.980;2023-03-22T01:36:27;4.80;97.30
43647;DHT22;56152;49.996;18.980;2023-03-22T01:41:30;4.70;97.30
43647;DHT22;56152;49.996;18.980;2023-03-22T01:46:36;4.50;97.30
43647;DHT22;56152;49.996;18.980;2023-03-22T01:51:39;4.30;97.30
43647;DHT22;56152;49.996;18.980;2023-03-22T01:56:41;4.10;97.50
43647;DHT22;56152;49.996;18.980;2023-03-22T02:01:48;4.00;97.60
43647;DHT22;56152;49.996;18.980;2023-03-22T02:06:51;3.80;97.50
43647;DHT22;56152;49.996;18.980;2023-03-22T02:12:09;3.70;97.60
43647;DHT22;56152;49.996;18.980;2023-03-22T02:17:27;3.60;97.70
43647;DHT22;56152;49.996;18.980;2023-03-22T02:23:01;3.40;97.70
43647;DHT22;56152;49.996;18.980;2023-03-22T02:28:22;3.30;97.70
43647;DHT22;56152;49.996;18.980;2023-03-22T02:39:11;3.00;97.60
43647;DHT22;56152;49.996;18.980;2023-03-22T02:44:24;2.90;97.70
43647;DHT22;56152;49.996;18.980;2023-03-22T02:49:32;2.80;97.70
43647;DHT22;56152;49.996;18.980;2023-03-22T02:54:41;2.70;97.70
43647;DHT22;56152;49.996;18.980;2023-03-22T02:59:46;2.70;97.80
43647;DHT22;56152;49.996;18.980;2023-03-22T03:04:52;2.60;97.70
43647;DHT22;56152;49.996;18.980;2023-03-22T03:09:57;2.50;97.70
43647;DHT22;56152;49.996;18.980;2023-03-22T03:15:00;2.40;97.70
43647;DHT22;56152;49.996;18.980;2023-03-22T03:20:16;2.30;97.80
43647;DHT22;56152;49.996;18.980;2023-03-22T03:25:31;2.20;97.80
43647;DHT22;56152;49.996;18.980;2023-03-22T03:30:42;2.10;97.80
43647;DHT22;56152;49.996;18.980;2023-03-22T03:35:51;2.10;97.90
43647;DHT22;56152;49.996;18.980;2023-03-22T03:41:01;2.10;98.20
43647;DHT22;56152;49.996;18.980;2023-03-22T03:46:06;2.00;97.80
43647;DHT22;56152;49.996;18.980;2023-03-22T03:51:09;1.90;97.70
43647;DHT22;56152;49.996;18.980;2023-03-22T03:56:14;1.70;97.70
43647;DHT22;56152;49.996;18.980;2023-03-22T04:01:16;1.60;97.90
43647;DHT22;56152;49.996;18.980;2023-03-22T04:06:23;1.60;98.30
43647;DHT22;56152;49.996;18.980;2023-03-22T04:11:27;1.70;98.00
43647;DHT22;56152;49.996;18.980;2023-03-22T04:16:29;1.80;98.00
43647;DHT22;56152;49.996;18.980;2023-03-22T04:21:31;2.00;97.90
43647;DHT22;56152;49.996;18.980;2023-03-22T04:26:37;2.10;97.80
43647;DHT22;56152;49.996;18.980;2023-03-22T04:31:40;2.20;97.70
43647;DHT22;56152;49.996;18.980;2023-03-22T04:36:42;2.30;97.70
43647;DHT22;56152;49.996;18.980;2023-03-22T04:41:47;2.40;97.60
43647;DHT22;56152;49.996;18.980;2023-03-22T04:46:51;2.50;97.50
43647;DHT22;56152;49.996;18.980;2023-03-22T04:51:54;2.60;97.40
43647;DHT22;56152;49.996;18.980;2023-03-22T04:57:01;2.60;97.40
43647;DHT22;56152;49.996;18.980;2023-03-22T05:02:03;2.70;97.40
43647;DHT22;56152;49.996;18.980;2023-03-22T05:07:06;2.80;97.40
43647;DHT22;56152;49.996;18.980;2023-03-22T05:12:10;2.90;97.30
43647;DHT22;56152;49.996;18.980;2023-03-22T05:17:12;3.00;97.40
43647;DHT22;56152;49.996;18.980;2023-03-22T05:22:16;3.10;97.40
43647;DHT22;56152;49.996;18.980;2023-03-22T05:27:21;3.20;97.40
43647;DHT22;56152;49.996;18.980;2023-03-22T05:32:31;3.30;97.30
43647;DHT22;56152;49.996;18.980;2023-03-22T05:37:37;3.40;97.30
43647;DHT22;56152;49.996;18.980;2023-03-22T05:42:41;3.40;97.30
43647;DHT22;56152;49.996;18.980;2023-03-22T05:47:45;3.60;97.30
43647;DHT22;56152;49.996;18.980;2023-03-22T05:52:50;3.70;97.20
43647;DHT22;56152;49.996;18.980;2023-03-22T05:57:55;3.80;97.20
43647;DHT22;56152;49.996;18.980;2023-03-22T06:02:58;4.00;97.20
43647;DHT22;56152;49.996;18.980;2023-03-22T06:08:03;4.20;97.20
43647;DHT22;56152;49.996;18.980;2023-03-22T06:13:08;4.40;97.10
43647;DHT22;56152;49.996;18.980;2023-03-22T06:18:11;4.60;97.10
43647;DHT22;56152;49.996;18.980;2023-03-22T06:23:13;4.80;97.10
43647;DHT22;56152;49.996;18.980;2023-03-22T06:28:18;5.00;97.00
43647;DHT22;56152;49.996;18.980;2023-03-22T06:33:21;5.10;97.00
43647;DHT22;56152;49.996;18.980;2023-03-22T06:38:23;5.20;97.00
43647;DHT22;56152;49.996;18.980;2023-03-22T06:43:28;5.40;97.00
43647;DHT22;56152;49.996;18.980;2023-03-22T06:48:30;5.60;97.00
43647;DHT22;56152;49.996;18.980;2023-03-22T06:53:33;5.80;97.00
43647;DHT22;56152;49.996;18.980;2023-03-22T06:58:38;5.90;96.90
43647;DHT22;56152;49.996;18.980;2023-03-22T07:03:41;6.10;96.80
43647;DHT22;56152;49.996;18.980;2023-03-22T07:08:43;6.30;96.80
43647;DHT22;56152;49.996;18.980;2023-03-22T07:13:48;6.50;96.70
43647;DHT22;56152;49.996;18.980;2023-03-22T07:18:50;6.60;96.50
43647;DHT22;56152;49.996;18.980;2023-03-22T07:23:53;6.70;96.50
43647;DHT22;56152;49.996;18.980;2023-03-22T07:28:57;6.70;96.40
43647;DHT22;56152;49.996;18.980;2023-03-22T07:33:59;6.70;96.50
43647;DHT22;56152;49.996;18.980;2023-03-22T07:39:04;6.80;96.60
43647;DHT22;56152;49.996;18.980;2023-03-22T07:44:08;7.00;96.50
43647;DHT22;56152;49.996;18.980;2023-03-22T07:49:11;7.20;96.30
43647;DHT22;56152;49.996;18.980;2023-03-22T07:54:13;7.40;96.30
43647;DHT22;56152;49.996;18.980;2023-03-22T07:59:17;7.60;96.10
43647;DHT22;56152;49.996;18.980;2023-03-22T08:04:20;7.90;95.90
43647;DHT22;56152;49.996;18.980;2023-03-22T08:09:22;8.10;95.70
43647;DHT22;56152;49.996;18.980;2023-03-22T08:14:27;8.40;95.50
43647;DHT22;56152;49.996;18.980;2023-03-22T08:19:30;8.60;95.30
43647;DHT22;56152;49.996;18.980;2023-03-22T08:24:32;8.80;95.10
43647;DHT22;56152;49.996;18.980;2023-03-22T08:29:37;9.00;94.90
43647;DHT22;56152;49.996;18.980;2023-03-22T08:34:40;9.30;94.60
43647;DHT22;56152;49.996;18.980;2023-03-22T08:39:43;9.50;94.30
43647;DHT22;56152;49.996;18.980;2023-03-22T08:44:49;9.40;94.20
43647;DHT22;56152;49.996;18.980;2023-03-22T08:49:54;9.60;94.30
43647;DHT22;56152;49.996;18.980;2023-03-22T08:54:56;9.90;94.10
43647;DHT22;56152;49.996;18.980;2023-03-22T09:00:01;10.20;93.90
43647;DHT22;56152;49.996;18.980;2023-03-22T09:05:06;10.30;93.60
43647;DHT22;56152;49.996;18.980;2023-03-22T09:10:10;10.50;93.50
43647;DHT22;56152;49.996;18.980;2023-03-22T09:15:15;10.40;93.40
43647;DHT22;56152;49.996;18.980;2023-03-22T09:20:17;10.50;93.50
43647;DHT22;56152;49.996;18.980;2023-03-22T09:25:27;10.50;93.30
43647;DHT22;56152;49.996;18.980;2023-03-22T09:30:32;10.60;93.10
43647;DHT22;56152;49.996;18.980;2023-03-22T09:35:34;10.60;93.00
43647;DHT22;56152;49.996;18.980;2023-03-22T09:40:42;10.70;93.00
43647;DHT22;56152;49.996;18.980;2023-03-22T09:45:51;10.70;93.10
43647;DHT22;56152;49.996;18.980;2023-03-22T09:50:53;10.80;93.20
43647;DHT22;56152;49.996;18.980;2023-03-22T09:56:00;11.00;93.10
43647;DHT22;56152;49.996;18.980;2023-03-22T10:01:13;11.20;92.80
43647;DHT22;56152;49.996;18.980;2023-03-22T10:06:19;11.50;92.60
43647;DHT22;56152;49.996;18.980;2023-03-22T10:11:27;11.80;92.10
43647;DHT22;56152;49.996;18.980;2023-03-22T10:16:33;12.00;91.70
43647;DHT22;56152;49.996;18.980;2023-03-22T10:21:36;12.20;91.40
43647;DHT22;56152;49.996;18.980;2023-03-22T10:26:39;12.60;91.30
43647;DHT22;56152;49.996;18.980;2023-03-22T10:31:44;12.90;90.90
43647;DHT22;56152;49.996;18.980;2023-03-22T10:36:46;13.30;90.80
43647;DHT22;56152;49.996;18.980;2023-03-22T10:41:49;13.90;90.20
43647;DHT22;56152;49.996;18.980;2023-03-22T10:46:55;14.10;88.40
43647;DHT22;56152;49.996;18.980;2023-03-22T10:52:10;14.30;88.00
43647;DHT22;56152;49.996;18.980;2023-03-22T10:57:19;14.50;87.30
43647;DHT22;56152;49.996;18.980;2023-03-22T11:02:22;14.60;87.10
43647;DHT22;56152;49.996;18.980;2023-03-22T11:07:31;14.80;86.60
43647;DHT22;56152;49.996;18.980;2023-03-22T11:12:35;15.50;85.40
43647;DHT22;56152;49.996;18.980;2023-03-22T11:17:39;16.00;82.70
43647;DHT22;56152;49.996;18.980;2023-03-22T11:22:42;16.20;80.40
43647;DHT22;56152;49.996;18.980;2023-03-22T11:27:50;16.30;80.60
43647;DHT22;56152;49.996;18.980;2023-03-22T11:33:00;16.40;79.60
43647;DHT22;56152;49.996;18.980;2023-03-22T11:38:03;16.70;79.10
43647;DHT22;56152;49.996;18.980;2023-03-22T11:43:10;16.90;79.40
43647;DHT22;56152;49.996;18.980;2023-03-22T11:48:17;17.40;76.90
43647;DHT22;56152;49.996;18.980;2023-03-22T11:53:21;17.50;76.40
43647;DHT22;56152;49.996;18.980;2023-03-22T11:58:25;17.60;76.70
43647;DHT22;56152;49.996;18.980;2023-03-22T12:03:29;17.70;76.30
43647;DHT22;56152;49.996;18.980;2023-03-22T12:08:37;17.90;75.80
43647;DHT22;56152;49.996;18.980;2023-03-22T12:13:43;17.80;69.80
43647;DHT22;56152;49.996;18.980;2023-03-22T12:18:49;17.60;75.10
43647;DHT22;56152;49.996;18.980;2023-03-22T12:23:57;17.70;74.30
43647;DHT22;56152;49.996;18.980;2023-03-22T12:29:02;17.80;74.70
43647;DHT22;56152;49.996;18.980;2023-03-22T12:34:12;17.80;71.50
43647;DHT22;56152;49.996;18.980;2023-03-22T12:39:17;17.70;72.30
43647;DHT22;56152;49.996;18.980;2023-03-22T12:44:22;17.70;71.80
43647;DHT22;56152;49.996;18.980;2023-03-22T12:49:28;17.90;75.50
43647;DHT22;56152;49.996;18.980;2023-03-22T12:54:32;18.10;72.90
43647;DHT22;56152;49.996;18.980;2023-03-22T12:59:35;17.80;72.20
43647;DHT22;56152;49.996;18.980;2023-03-22T13:04:51;18.00;73.50
43647;DHT22;56152;49.996;18.980;2023-03-22T13:09:54;17.80;75.10
43647;DHT22;56152;49.996;18.980;2023-03-22T13:14:57;17.90;73.10
43647;DHT22;56152;49.996;18.980;2023-03-22T13:25:28;18.50;74.90
43647;DHT22;56152;49.996;18.980;2023-03-22T13:30:31;18.60;72.60
43647;DHT22;56152;49.996;18.980;2023-03-22T13:35:36;18.60;70.30
43647;DHT22;56152;49.996;18.980;2023-03-22T13:40:45;18.50;72.50
43647;DHT22;56152;49.996;18.980;2023-03-22T13:51:15;18.60;69.60
43647;DHT22;56152;49.996;18.980;2023-03-22T13:56:29;18.30;72.10
43647;DHT22;56152;49.996;18.980;2023-03-22T14:01:36;18.40;71.70
43647;DHT22;56152;49.996;18.980;2023-03-22T14:06:47;18.50;72.20
43647;DHT22;56152;49.996;18.980;2023-03-22T14:11:58;18.30;71.10
43647;DHT22;56152;49.996;18.980;2023-03-22T14:17:01;17.90;73.10
43647;DHT22;56152;49.996;18.980;2023-03-22T14:22:04;17.70;74.60
43647;DHT22;56152;49.996;18.980;2023-03-22T14:27:11;17.80;74.90
43647;DHT22;56152;49.996;18.980;2023-03-22T14:32:19;18.00;73.40
43647;DHT22;56152;49.996;18.980;2023-03-22T14:37:23;18.30;72.90
43647;DHT22;56152;49.996;18.980;2023-03-22T14:42:29;18.50;72.60
43647;DHT22;56152;49.996;18.980;2023-03-22T14:47:38;18.40;72.50
43647;DHT22;56152;49.996;18.980;2023-03-22T14:52:41;18.30;72.10
43647;DHT22;56152;49.996;18.980;2023-03-22T14:57:47;18.30;70.40
43647;DHT22;56152;49.996;18.980;2023-03-22T15:02:53;18.20;71.90
43647;DHT22;56152;49.996;18.980;2023-03-22T15:08:04;17.90;73.30
43647;DHT22;56152;49.996;18.980;2023-03-22T15:13:09;17.70;74.20
43647;DHT22;56152;49.996;18.980;2023-03-22T15:18:12;17.50;74.30
43647;DHT22;56152;49.996;18.980;2023-03-22T15:23:15;17.30;73.90
43647;DHT22;56152;49.996;18.980;2023-03-22T15:28:21;16.90;73.50
43647;DHT22;56152;49.996;18.980;2023-03-22T15:33:27;16.50;75.30
43647;DHT22;56152;49.996;18.980;2023-03-22T15:38:34;16.20;76.20
43647;DHT22;56152;49.996;18.980;2023-03-22T15:43:40;16.00;77.40
43647;DHT22;56152;49.996;18.980;2023-03-22T15:48:44;15.90;78.10
43647;DHT22;56152;49.996;18.980;2023-03-22T15:53:46;15.80;78.20
43647;DHT22;56152;49.996;18.980;2023-03-22T15:58:56;15.80;79.10
43647;DHT22;56152;49.996;18.980;2023-03-22T16:03:59;15.70;78.90
43647;DHT22;56152;49.996;18.980;2023-03-22T16:09:07;15.60;78.50
43647;DHT22;56152;49.996;18.980;2023-03-22T16:14:13;15.50;79.20
43647;DHT22;56152;49.996;18.980;2023-03-22T16:19:16;15.30;79.80
43647;DHT22;56152;49.996;18.980;2023-03-22T16:24:22;15.20;80.00
43647;DHT22;56152;49.996;18.980;2023-03-22T16:29:29;15.00;80.20
43647;DHT22;56152;49.996;18.980;2023-03-22T16:34:34;14.90;80.90
43647;DHT22;56152;49.996;18.980;2023-03-22T16:39:37;14.80;81.30
43647;DHT22;56152;49.996;18.980;2023-03-22T16:44:44;14.70;81.30
43647;DHT22;56152;49.996;18.980;2023-03-22T16:49:46;14.50;81.50
43647;DHT22;56152;49.996;18.980;2023-03-22T16:54:50;14.30;81.60
43647;DHT22;56152;49.996;18.980;2023-03-22T16:59:56;14.10;81.90
43647;DHT22;56152;49.996;18.980;2023-03-22T17:05:02;14.00;82.00
43647;DHT22;56152;49.996;18.980;2023-03-22T17:10:06;13.80;82.00
43647;DHT22;56152;49.996;18.980;2023-03-22T17:15:19;13.50;82.40
43647;DHT22;56152;49.996;18.980;2023-03-22T17:20:30;13.40;82.90
43647;DHT22;56152;49.996;18.980;2023-03-22T17:25:33;13.20;83.50
43647;DHT22;56152;49.996;18.980;2023-03-22T17:30:38;13.10;84.10
43647;DHT22;56152;49.996;18.980;2023-03-22T17:35:40;13.00;84.30
43647;DHT22;56152;49.996;18.980;2023-03-22T17:40:43;12.80;84.30
43647;DHT22;56152;49.996;18.980;2023-03-22T17:45:47;12.60;84.60
43647;DHT22;56152;49.996;18.980;2023-03-22T17:50:52;12.40;85.00
43647;DHT22;56152;49.996;18.980;2023-03-22T17:55:54;12.30;85.50
43647;DHT22;56152;49.996;18.980;2023-03-22T18:00:59;12.20;85.70
43647;DHT22;56152;49.996;18.980;2023-03-22T18:06:01;12.20;86.00
43647;DHT22;56152;49.996;18.980;2023-03-22T18:11:03;12.10;86.20
43647;DHT22;56152;49.996;18.980;2023-03-22T18:16:07;11.90;86.30
43647;DHT22;56152;49.996;18.980;2023-03-22T18:21:10;11.90;86.60
43647;DHT22;56152;49.996;18.980;2023-03-22T18:26:15;11.80;86.80
43647;DHT22;56152;49.996;18.980;2023-03-22T18:31:19;11.70;86.90
43647;DHT22;56152;49.996;18.980;2023-03-22T18:36:21;11.70;87.10
43647;DHT22;56152;49.996;18.980;2023-03-22T18:41:24;11.50;87.30
43647;DHT22;56152;49.996;18.980;2023-03-22T18:46:28;11.50;87.50
43647;DHT22;56152;49.996;18.980;2023-03-22T18:51:30;11.40;87.60
43647;DHT22;56152;49.996;18.980;2023-03-22T18:56:32;11.40;87.90
43647;DHT22;56152;49.996;18.980;2023-03-22T19:01:37;11.20;88.00
43647;DHT22;56152;49.996;18.980;2023-03-22T19:06:39;11.10;88.30
43647;DHT22;56152;49.996;18.980;2023-03-22T19:11:44;11.10;88.90
43647;DHT22;56152;49.996;18.980;2023-03-22T19:16:48;11.20;89.20
43647;DHT22;56152;49.996;18.980;2023-03-22T19:21:49;11.20;88.60
43647;DHT22;56152;49.996;18.980;2023-03-22T19:26:51;11.10;88.50
43647;DHT22;56152;49.996;18.980;2023-03-22T19:31:57;10.90;88.60
43647;DHT22;56152;49.996;18.980;2023-03-22T19:37:01;10.70;89.00
43647;DHT22;56152;49.996;18.980;2023-03-22T19:42:03;10.70;89.80
43647;DHT22;56152;49.996;18.980;2023-03-22T19:47:07;10.80;90.00
43647;DHT22;56152;49.996;18.980;2023-03-22T19:52:10;10.80;89.80
43647;DHT22;56152;49.996;18.980;2023-03-22T19:57:13;10.80;89.90
43647;DHT22;56152;49.996;18.980;2023-03-22T20:02:17;10.70;89.80
43647;DHT22;56152;49.996;18.980;2023-03-22T20:07:20;10.70;90.00
43647;DHT22;56152;49.996;18.980;2023-03-22T20:12:25;10.70;90.00
43647;DHT22;56152;49.996;18.980;2023-03-22T20:17:29;10.50;90.10
43647;DHT22;56152;49.996;18.980;2023-03-22T20:22:33;10.40;90.30
43647;DHT22;56152;49.996;18.980;2023-03-22T20:27:37;10.30;90.40
43647;DHT22;56152;49.996;18.980;2023-03-22T20:32:44;10.20;90.50
43647;DHT22;56152;49.996;18.980;2023-03-22T20:37:47;10.00;90.60
43647;DHT22;56152;49.996;18.980;2023-03-22T20:42:50;10.00;90.80
43647;DHT22;56152;49.996;18.980;2023-03-22T20:47:55;9.90;90.90
43647;DHT22;56152;49.996;18.980;2023-03-22T20:52:57;9.80;91.00
43647;DHT22;56152;49.996;18.980;2023-03-22T20:58:00;9.70;91.10
43647;DHT22;56152;49.996;18.980;2023-03-22T21:03:05;9.60;91.20
43647;DHT22;56152;49.996;18.980;2023-03-22T21:08:09;9.50;91.20
43647;DHT22;56152;49.996;18.980;2023-03-22T21:13:24;9.30;91.20
43647;DHT22;56152;49.996;18.980;2023-03-22T21:18:28;9.20;91.30
43647;DHT22;56152;49.996;18.980;2023-03-22T21:23:29;9.10;91.50
43647;DHT22;56152;49.996;18.980;2023-03-22T21:28:31;9.00;91.60
43647;DHT22;56152;49.996;18.980;2023-03-22T21:33:35;8.90;91.60
43647;DHT22;56152;49.996;18.980;2023-03-22T21:38:38;8.80;91.80
43647;DHT22;56152;49.996;18.980;2023-03-22T21:43:44;8.70;91.80
43647;DHT22;56152;49.996;18.980;2023-03-22T21:48:55;8.60;92.00
43647;DHT22;56152;49.996;18.980;2023-03-22T21:54:00;8.60;92.00
43647;DHT22;56152;49.996;18.980;2023-03-22T21:59:02;8.50;92.00
43647;DHT22;56152;49.996;18.980;2023-03-22T22:04:09;8.40;92.10
43647;DHT22;56152;49.996;18.980;2023-03-22T22:09:14;8.40;92.20
43647;DHT22;56152;49.996;18.980;2023-03-22T22:14:16;8.40;92.30
43647;DHT22;56152;49.996;18.980;2023-03-22T22:24:36;8.40;92.40
43647;DHT22;56152;49.996;18.980;2023-03-22T22:29:38;8.30;92.30
43647;DHT22;56152;49.996;18.980;2023-03-22T22:34:45;8.30;92.30
43647;DHT22;56152;49.996;18.980;2023-03-22T22:39:48;8.20;92.30
43647;DHT22;56152;49.996;18.980;2023-03-22T22:44:51;8.10;92.20
43647;DHT22;56152;49.996;18.980;2023-03-22T22:49:53;7.90;92.30
43647;DHT22;56152;49.996;18.980;2023-03-22T22:54:57;7.90;92.40
43647;DHT22;56152;49.996;18.980;2023-03-22T23:00:03;7.80;92.50
43647;DHT22;56152;49.996;18.980;2023-03-22T23:05:06;7.70;92.60
43647;DHT22;56152;49.996;18.980;2023-03-22T23:10:09;7.70;92.70
43647;DHT22;56152;49.996;18.980;2023-03-22T23:15:11;7.60;92.70
43647;DHT22;56152;49.996;18.980;2023-03-22T23:20:13;7.50;92.80
43647;DHT22;56152;49.996;18.980;2023-03-22T23:25:17;7.50;92.80
43647;DHT22;56152;49.996;18.980;2023-03-22T23:30:19;7.40;92.80
43647;DHT22;56152;49.996;18.980;2023-03-22T23:35:23;7.30;92.90
43647;DHT22;56152;49.996;18.980;2023-03-22T23:40:27;7.20;92.90
43647;DHT22;56152;49.996;18.980;2023-03-22T23:45:29;7.20;93.00
43647;DHT22;56152;49.996;18.980;2023-03-22T23:50:31;7.10;93.00
43647;DHT22;56152;49.996;18.980;2023-03-22T23:55:39;7.10;93.10
